Time;durP1;ratioP1;P1;durP2;ratioP2;P2;SDS_P1;SDS_P2;PMS_P1;PMS_P2;Temp;Humidity;BMP_temperature;BMP_pressure;BME280_temperature;BME280_humidity;BME280_pressure;Samples;Min_cycle;Max_cycle;Signal;HPM_P1;HPM_P2
2022/03/27 00:01:45;;;;;;;37.65;3.00;;;;;;;;;;5032314;28;20037;-41
2022/03/27 00:04:12;;;;;;;48.03;3.53;;;;;;;;;;5032447;28;20474;-44
2022/03/27 00:06:39;;;;;;;37.17;3.13;;;;;;;;;;5032921;28;20026;-44
2022/03/27 00:09:06;;;;;;;35.50;2.65;;;;;;;;;;5034439;28;20714;-47
2022/03/27 00:11:36;;;;;;;23.30;2.67;;;;;;;;;;5042497;28;20143;-44
2022/03/27 00:14:04;;;;;;;20.42;3.00;;;;;;;;;;5041856;28;20411;-45
2022/03/27 00:16:32;;;;;;;29.77;3.45;;;;;;;;;;5040071;28;20034;-44
2022/03/27 00:18:59;;;;;;;25.80;3.55;;;;;;;;;;5040542;28;20033;-44
2022/03/27 00:21:27;;;;;;;47.05;5.97;;;;;;;;;;5038886;28;20087;-44
2022/03/27 00:23:54;;;;;;;40.88;6.97;;;;;;;;;;5039692;28;20391;-46
2022/03/27 00:26:21;;;;;;;32.45;7.07;;;;;;;;;;5040931;28;20029;-44
2022/03/27 00:28:57;;;;;;;39.30;10.45;;;;;;;;;;5041570;28;20472;-44
2022/03/27 00:31:24;;;;;;;38.00;12.10;;;;;;;;;;5040981;28;20060;-46
2022/03/27 00:33:55;;;;;;;55.28;15.85;;;;;;;;;;5040173;28;20049;-46
2022/03/27 00:36:27;;;;;;;57.28;19.88;;;;;;;;;;5040718;28;20039;-44
2022/03/27 00:39:01;;;;;;;68.15;22.67;;;;;;;;;;5041478;28;20185;-44
2022/03/27 00:41:30;;;;;;;63.78;24.75;;;;;;;;;;5039094;28;20029;-44
2022/03/27 00:43:57;;;;;;;72.03;26.73;;;;;;;;;;5031635;28;20037;-49
2022/03/27 00:46:27;;;;;;;57.20;21.73;;;;;;;;;;5046098;28;20056;-44
2022/03/27 00:48:54;;;;;;;49.90;17.13;;;;;;;;;;5051855;28;20478;-43
2022/03/27 00:51:27;;;;;;;44.83;16.17;;;;;;;;;;5051352;28;20029;-44
2022/03/27 00:53:57;;;;;;;49.70;15.13;;;;;;;;;;5051784;28;20029;-47
2022/03/27 00:56:24;;;;;;;45.50;16.40;;;;;;;;;;5051751;28;20442;-45
2022/03/27 00:58:51;;;;;;;49.65;15.63;;;;;;;;;;5051787;28;20419;-45
2022/03/27 01:01:25;;;;;;;39.78;15.20;;;;;;;;;;5051080;28;20390;-48
2022/03/27 01:03:57;;;;;;;42.22;14.70;;;;;;;;;;5051896;28;20036;-44
2022/03/27 01:06:44;;;;;;;40.03;15.82;;;;;;;;;;5051504;28;20041;-44
2022/03/27 01:12:06;;;;;;;36.65;14.60;;;;;;;;;;5031881;28;20144;-49
2022/03/27 01:14:34;;;;;;;36.00;13.95;;;;;;;;;;5031651;28;20039;-44
2022/03/27 01:17:16;;;;;;;27.90;13.77;;;;;;;;;;5031363;28;20499;-46
2022/03/27 01:19:48;;;;;;;29.77;13.38;;;;;;;;;;5031440;28;20115;-46
2022/03/27 01:22:15;;;;;;;29.10;12.82;;;;;;;;;;5030677;28;20112;-44
2022/03/27 01:24:43;;;;;;;31.20;12.90;;;;;;;;;;5031131;28;20025;-43
2022/03/27 01:27:10;;;;;;;29.05;12.70;;;;;;;;;;5030528;28;20044;-46
2022/03/27 01:29:37;;;;;;;29.75;11.60;;;;;;;;;;5030733;28;20104;-46
2022/03/27 01:32:08;;;;;;;23.85;10.45;;;;;;;;;;5015133;28;20080;-44
2022/03/27 01:34:48;;;;;;;21.55;10.02;;;;;;;;;;5011741;28;20104;-44
2022/03/27 01:37:15;;;;;;;23.58;10.43;;;;;;;;;;5025537;28;20479;-45
2022/03/27 01:39:46;;;;;;;21.48;11.10;;;;;;;;;;5020155;28;20053;-44
2022/03/27 01:42:13;;;;;;;26.05;10.73;;;;;;;;;;5022446;28;20036;-46
2022/03/27 01:44:40;;;;;;;22.95;10.50;;;;;;;;;;5024852;28;20037;-45
2022/03/27 01:47:07;;;;;;;24.80;10.05;;;;;;;;;;5018433;28;20022;-45
2022/03/27 01:49:35;;;;;;;19.10;8.85;;;;;;;;;;5015347;28;20057;-44
2022/03/27 01:52:02;;;;;;;25.42;10.07;;;;;;;;;;5020413;28;20033;-44
2022/03/27 01:54:29;;;;;;;24.48;9.98;;;;;;;;;;5019099;28;20033;-44
2022/03/27 01:56:59;;;;;;;22.67;8.05;;;;;;;;;;5019958;28;20437;-43
2022/03/27 01:59:26;;;;;;;24.42;8.75;;;;;;;;;;5019717;28;20033;-43
2022/03/27 02:01:56;;;;;;;21.95;8.80;;;;;;;;;;5019357;28;20041;-44
2022/03/27 02:04:23;;;;;;;19.60;8.80;;;;;;;;;;5018906;28;20029;-44
2022/03/27 02:06:50;;;;;;;20.52;7.93;;;;;;;;;;5010940;28;20088;-44
2022/03/27 02:09:17;;;;;;;24.45;7.50;;;;;;;;;;5006520;28;20065;-46
2022/03/27 02:11:50;;;;;;;18.83;7.30;;;;;;;;;;5009761;28;20119;-47
2022/03/27 02:14:21;;;;;;;18.63;7.07;;;;;;;;;;5010774;28;20586;-44
2022/03/27 02:16:48;;;;;;;17.90;7.82;;;;;;;;;;5010654;28;20034;-42
2022/03/27 02:19:15;;;;;;;28.10;7.85;;;;;;;;;;5014325;28;20041;-41
2022/03/27 02:21:43;;;;;;;17.38;6.18;;;;;;;;;;5022758;28;20056;-49
2022/03/27 02:24:12;;;;;;;17.52;5.68;;;;;;;;;;5011352;28;20080;-46
2022/03/27 02:26:46;;;;;;;15.07;5.68;;;;;;;;;;5029930;28;20109;-45
2022/03/27 02:29:14;;;;;;;14.60;5.55;;;;;;;;;;5029432;28;20025;-44
2022/03/27 02:31:41;;;;;;;17.58;6.70;;;;;;;;;;5030619;28;20033;-44
2022/03/27 02:34:08;;;;;;;17.33;7.03;;;;;;;;;;5034212;28;20080;-47
2022/03/27 02:36:35;;;;;;;18.35;7.05;;;;;;;;;;5034421;28;20043;-46
2022/03/27 02:39:02;;;;;;;17.40;6.70;;;;;;;;;;5034275;28;20072;-48
2022/03/27 02:41:29;;;;;;;19.23;5.78;;;;;;;;;;5025641;28;20022;-47
2022/03/27 02:43:56;;;;;;;15.93;5.80;;;;;;;;;;5023780;28;20052;-46
2022/03/27 02:46:24;;;;;;;13.73;5.80;;;;;;;;;;5024157;28;20032;-47
2022/03/27 02:48:51;;;;;;;13.23;5.90;;;;;;;;;;4999735;28;20423;-46
2022/03/27 02:51:18;;;;;;;14.55;5.63;;;;;;;;;;5014672;28;20101;-47
2022/03/27 02:53:45;;;;;;;18.05;5.88;;;;;;;;;;5022649;28;20033;-46
2022/03/27 02:56:12;;;;;;;11.50;5.70;;;;;;;;;;5034397;28;20053;-46
2022/03/27 02:58:39;;;;;;;17.30;5.95;;;;;;;;;;5034116;28;20045;-45
2022/03/27 03:01:06;;;;;;;12.55;5.25;;;;;;;;;;5034527;28;20048;-45
2022/03/27 03:03:33;;;;;;;13.73;5.95;;;;;;;;;;5025217;28;20029;-43
2022/03/27 03:06:02;;;;;;;13.05;5.25;;;;;;;;;;5024224;28;20025;-46
2022/03/27 03:08:29;;;;;;;10.30;5.25;;;;;;;;;;5028241;28;20045;-46
2022/03/27 03:10:56;;;;;;;10.30;5.28;;;;;;;;;;5042435;28;20487;-46
2022/03/27 03:13:23;;;;;;;13.20;5.50;;;;;;;;;;5042870;28;20120;-45
2022/03/27 03:15:51;;;;;;;13.25;4.97;;;;;;;;;;5043032;28;20091;-49
2022/03/27 03:18:18;;;;;;;11.13;5.68;;;;;;;;;;5044127;28;20067;-47
2022/03/27 03:20:45;;;;;;;9.98;5.60;;;;;;;;;;5042735;28;20156;-44
2022/03/27 03:23:12;;;;;;;9.98;5.43;;;;;;;;;;5030216;28;20139;-47
2022/03/27 03:25:42;;;;;;;10.15;5.15;;;;;;;;;;5053797;28;20434;-44
2022/03/27 03:28:09;;;;;;;9.68;4.97;;;;;;;;;;5054026;28;20548;-44
2022/03/27 03:30:36;;;;;;;8.30;4.95;;;;;;;;;;5054176;28;20065;-44
2022/03/27 03:33:03;;;;;;;9.25;4.95;;;;;;;;;;5054036;28;20107;-44
2022/03/27 03:35:30;;;;;;;9.13;4.78;;;;;;;;;;5054210;28;20055;-45
2022/03/27 03:37:58;;;;;;;10.57;5.20;;;;;;;;;;5053910;28;20103;-45
2022/03/27 03:40:25;;;;;;;10.98;4.97;;;;;;;;;;5054194;28;20032;-43
2022/03/27 03:42:53;;;;;;;10.52;5.18;;;;;;;;;;5053725;28;20041;-46
2022/03/27 03:45:20;;;;;;;10.45;4.43;;;;;;;;;;5035175;28;20054;-44
2022/03/27 03:47:47;;;;;;;9.75;4.85;;;;;;;;;;5019612;28;20550;-44
2022/03/27 03:50:14;;;;;;;9.25;4.65;;;;;;;;;;5053510;28;20037;-45
2022/03/27 03:52:41;;;;;;;6.85;4.47;;;;;;;;;;5053883;28;20104;-43
2022/03/27 03:55:08;;;;;;;12.55;4.97;;;;;;;;;;5053632;28;20104;-44
2022/03/27 03:57:35;;;;;;;5.68;4.00;;;;;;;;;;5053590;28;20552;-44
2022/03/27 04:00:02;;;;;;;7.40;4.05;;;;;;;;;;5053597;28;20033;-44
2022/03/27 04:02:29;;;;;;;7.05;4.28;;;;;;;;;;5053920;28;20017;-46
2022/03/27 04:04:56;;;;;;;10.55;4.72;;;;;;;;;;5053593;28;20116;-43
2022/03/27 04:07:23;;;;;;;8.25;3.95;;;;;;;;;;5053585;28;20021;-44
2022/03/27 04:09:51;;;;;;;8.70;4.28;;;;;;;;;;5035723;28;20521;-44
2022/03/27 04:12:18;;;;;;;8.80;4.13;;;;;;;;;;5053897;28;20517;-44
2022/03/27 04:14:45;;;;;;;7.55;4.32;;;;;;;;;;5053593;28;20028;-45
2022/03/27 04:17:12;;;;;;;7.30;4.05;;;;;;;;;;5053657;28;20028;-43
2022/03/27 04:19:40;;;;;;;8.57;4.63;;;;;;;;;;5053511;28;20495;-44
2022/03/27 04:22:08;;;;;;;7.60;3.55;;;;;;;;;;5053481;28;20471;-44
2022/03/27 04:24:35;;;;;;;9.32;4.10;;;;;;;;;;5053507;28;20040;-44
2022/03/27 04:27:02;;;;;;;7.43;4.13;;;;;;;;;;5053495;28;20021;-44
2022/03/27 04:29:29;;;;;;;9.07;4.22;;;;;;;;;;5053549;28;20035;-44
2022/03/27 04:31:56;;;;;;;6.88;3.80;;;;;;;;;;5053407;28;20025;-44
2022/03/27 04:34:23;;;;;;;7.03;4.00;;;;;;;;;;5053634;28;20379;-44
2022/03/27 04:36:50;;;;;;;7.75;3.85;;;;;;;;;;5053230;28;20025;-44
2022/03/27 04:39:17;;;;;;;7.35;3.75;;;;;;;;;;5053205;28;20368;-44
2022/03/27 04:41:46;;;;;;;6.70;3.60;;;;;;;;;;5053282;28;20522;-44
2022/03/27 04:44:13;;;;;;;8.35;3.88;;;;;;;;;;5052997;28;20033;-44
2022/03/27 04:46:40;;;;;;;6.40;3.63;;;;;;;;;;5053127;28;20048;-44
2022/03/27 04:49:06;;;;;;;9.15;3.85;;;;;;;;;;5053066;28;20048;-44
2022/03/27 04:51:33;;;;;;;6.72;4.00;;;;;;;;;;5053107;28;20039;-44
2022/03/27 04:54:00;;;;;;;6.60;3.22;;;;;;;;;;5052987;28;20025;-44
2022/03/27 04:56:27;;;;;;;5.05;3.20;;;;;;;;;;5051906;28;20033;-44
2022/03/27 04:58:54;;;;;;;6.57;3.00;;;;;;;;;;5052938;28;20510;-44
2022/03/27 05:01:21;;;;;;;6.47;3.55;;;;;;;;;;5052982;28;20021;-43
2022/03/27 05:03:48;;;;;;;5.43;3.20;;;;;;;;;;5052733;28;20021;-44
2022/03/27 05:06:16;;;;;;;6.22;3.67;;;;;;;;;;5052773;28;20053;-44
2022/03/27 05:08:44;;;;;;;8.20;3.58;;;;;;;;;;5044103;28;20500;-45
2022/03/27 05:11:11;;;;;;;4.75;3.05;;;;;;;;;;5032767;28;20529;-44
2022/03/27 05:13:38;;;;;;;3.88;2.90;;;;;;;;;;5032824;28;20022;-44
2022/03/27 05:16:06;;;;;;;6.00;3.30;;;;;;;;;;5032779;28;20044;-44
2022/03/27 05:18:33;;;;;;;7.90;3.22;;;;;;;;;;5032740;28;20080;-44
2022/03/27 05:21:00;;;;;;;5.07;3.30;;;;;;;;;;5032634;28;20044;-45
2022/03/27 05:23:28;;;;;;;5.00;3.10;;;;;;;;;;5032709;28;20018;-44
2022/03/27 05:25:55;;;;;;;4.95;2.83;;;;;;;;;;5032537;28;20041;-45
2022/03/27 05:28:22;;;;;;;5.38;3.10;;;;;;;;;;5032665;28;20026;-44
2022/03/27 05:30:49;;;;;;;6.38;3.35;;;;;;;;;;5032675;28;20022;-44
2022/03/27 05:33:17;;;;;;;5.55;3.05;;;;;;;;;;5032541;28;20049;-44
2022/03/27 05:35:44;;;;;;;4.88;3.15;;;;;;;;;;5032424;28;20088;-44
2022/03/27 05:38:11;;;;;;;6.82;3.08;;;;;;;;;;5032420;28;20417;-46
2022/03/27 05:40:38;;;;;;;10.30;3.50;;;;;;;;;;5032566;28;20060;-45
2022/03/27 05:43:05;;;;;;;4.95;3.00;;;;;;;;;;5032388;28;20403;-44
2022/03/27 05:45:33;;;;;;;6.97;2.95;;;;;;;;;;5032354;28;20053;-44
2022/03/27 05:48:00;;;;;;;5.32;3.00;;;;;;;;;;5014671;28;20391;-44
2022/03/27 05:50:27;;;;;;;4.25;2.85;;;;;;;;;;5032314;28;20025;-46
2022/03/27 05:52:54;;;;;;;4.03;2.90;;;;;;;;;;5032264;28;20052;-44
2022/03/27 05:55:22;;;;;;;4.72;2.53;;;;;;;;;;5032253;28;20026;-44
2022/03/27 05:57:49;;;;;;;3.90;2.50;;;;;;;;;;5032126;28;20021;-44
2022/03/27 06:00:19;;;;;;;6.22;3.28;;;;;;;;;;5032277;28;20141;-44
2022/03/27 06:02:46;;;;;;;5.70;3.00;;;;;;;;;;5032385;28;20086;-46
2022/03/27 06:05:13;;;;;;;4.32;2.45;;;;;;;;;;5032118;28;20029;-44
2022/03/27 06:07:47;;;;;;;4.60;2.50;;;;;;;;;;5034244;28;20173;-44
2022/03/27 06:10:15;;;;;;;6.53;2.92;;;;;;;;;;5036160;28;20047;-44
2022/03/27 06:12:45;;;;;;;5.70;2.60;;;;;;;;;;5036144;28;20028;-44
2022/03/27 06:15:13;;;;;;;5.47;2.72;;;;;;;;;;5036006;28;20119;-44
2022/03/27 06:17:42;;;;;;;5.07;2.80;;;;;;;;;;5035944;28;20431;-44
2022/03/27 06:20:10;;;;;;;4.47;2.67;;;;;;;;;;5035921;28;20041;-44
2022/03/27 06:22:38;;;;;;;4.15;2.40;;;;;;;;;;5035989;28;20537;-44
2022/03/27 06:25:05;;;;;;;4.35;2.85;;;;;;;;;;5035829;28;20091;-44
2022/03/27 06:27:32;;;;;;;4.28;2.58;;;;;;;;;;5035783;28;20022;-45
2022/03/27 06:30:00;;;;;;;4.25;2.50;;;;;;;;;;5018062;28;20092;-44
2022/03/27 06:32:26;;;;;;;3.75;2.38;;;;;;;;;;5035758;28;20052;-44
2022/03/27 06:34:59;;;;;;;5.28;3.03;;;;;;;;;;5035734;28;20076;-44
2022/03/27 06:37:27;;;;;;;4.05;2.78;;;;;;;;;;5035730;28;20128;-44
2022/03/27 06:39:57;;;;;;;4.00;2.85;;;;;;;;;;5035617;28;20038;-44
2022/03/27 06:42:26;;;;;;;4.32;2.50;;;;;;;;;;5035622;28;20042;-44
2022/03/27 06:44:54;;;;;;;4.45;2.38;;;;;;;;;;5035387;28;20092;-44
2022/03/27 06:47:21;;;;;;;3.70;2.30;;;;;;;;;;5035540;28;20022;-44
2022/03/27 06:49:48;;;;;;;5.60;2.65;;;;;;;;;;5035423;28;20033;-44
2022/03/27 06:52:16;;;;;;;3.90;2.63;;;;;;;;;;5017669;28;20079;-44
2022/03/27 06:54:44;;;;;;;3.22;2.00;;;;;;;;;;5163211;23;20050;-42
2022/03/27 06:57:11;;;;;;;4.03;2.45;;;;;;;;;;5015703;28;20033;-41
2022/03/27 07:05:09;;;;;;;4.18;2.30;;;;;;;;;;5015068;28;20450;-42
2022/03/27 07:07:37;;;;;;;3.63;2.67;;;;;;;;;;5015446;28;20058;-41
2022/03/27 07:10:05;;;;;;;3.97;2.25;;;;;;;;;;5015384;28;20057;-42
2022/03/27 07:12:32;;;;;;;3.33;2.10;;;;;;;;;;5015417;28;20026;-42
2022/03/27 07:14:59;;;;;;;2.72;2.08;;;;;;;;;;5015190;28;20454;-42
2022/03/27 07:17:26;;;;;;;3.63;2.15;;;;;;;;;;5015542;28;20383;-41
2022/03/27 07:19:53;;;;;;;3.47;2.30;;;;;;;;;;5014120;28;20042;-41
2022/03/27 07:22:20;;;;;;;4.75;2.30;;;;;;;;;;5015134;28;20079;-41
2022/03/27 07:24:47;;;;;;;3.28;2.13;;;;;;;;;;5014995;28;20084;-41
2022/03/27 07:27:14;;;;;;;3.45;2.67;;;;;;;;;;5015130;28;20030;-42
2022/03/27 07:29:41;;;;;;;3.00;2.00;;;;;;;;;;5015104;28;20495;-41
2022/03/27 07:32:10;;;;;;;4.75;2.45;;;;;;;;;;5015058;28;20386;-43
2022/03/27 07:34:38;;;;;;;3.28;2.15;;;;;;;;;;5015078;28;20388;-41
2022/03/27 07:37:05;;;;;;;3.30;2.35;;;;;;;;;;5014937;28;20030;-42
2022/03/27 07:39:32;;;;;;;3.38;2.10;;;;;;;;;;5014768;28;20112;-43
2022/03/27 07:41:59;;;;;;;5.07;2.10;;;;;;;;;;5029977;28;20030;-43
2022/03/27 07:44:26;;;;;;;4.30;2.40;;;;;;;;;;5014734;28;20493;-42
2022/03/27 07:46:56;;;;;;;8.48;2.53;;;;;;;;;;5014488;28;20061;-43
2022/03/27 07:49:23;;;;;;;4.68;2.05;;;;;;;;;;5014534;28;20141;-43
2022/03/27 07:51:50;;;;;;;3.80;1.85;;;;;;;;;;5014681;28;20518;-43
2022/03/27 07:54:17;;;;;;;3.20;2.20;;;;;;;;;;5014343;28;20050;-43
2022/03/27 07:56:44;;;;;;;2.67;1.90;;;;;;;;;;5014465;28;20022;-42
2022/03/27 07:59:11;;;;;;;4.35;2.30;;;;;;;;;;5014431;28;20034;-42
2022/03/27 08:01:38;;;;;;;3.90;2.13;;;;;;;;;;5014486;28;20026;-42
2022/03/27 08:04:05;;;;;;;4.47;2.47;;;;;;;;;;5014326;28;20105;-42
2022/03/27 08:06:36;;;;;;;3.60;2.10;;;;;;;;;;5014123;28;20026;-44
2022/03/27 08:09:06;;;;;;;2.80;2.40;;;;;;;;;;5014210;28;20076;-42
2022/03/27 08:11:35;;;;;;;2.80;2.03;;;;;;;;;;5014281;28;20490;-42
2022/03/27 08:14:02;;;;;;;4.10;2.28;;;;;;;;;;5014377;28;20422;-41
2022/03/27 08:16:29;;;;;;;3.28;2.15;;;;;;;;;;5014104;28;20030;-42
2022/03/27 08:18:56;;;;;;;2.95;1.70;;;;;;;;;;5014110;28;20490;-42
2022/03/27 08:21:23;;;;;;;4.38;2.13;;;;;;;;;;5014011;28;20145;-44
2022/03/27 08:23:50;;;;;;;2.88;1.98;;;;;;;;;;5013958;28;20087;-46
2022/03/27 08:29:03;;;;;;;3.20;2.40;;;;;;;;;;5013920;28;20092;-43
2022/03/27 08:31:32;;;;;;;3.70;1.90;;;;;;;;;;5013568;28;20423;-42
2022/03/27 08:33:59;;;;;;;2.88;2.28;;;;;;;;;;5013778;28;20018;-42
2022/03/27 08:36:29;;;;;;;2.70;2.17;;;;;;;;;;5013819;28;20471;-42
2022/03/27 08:38:56;;;;;;;3.38;1.90;;;;;;;;;;5013673;28;20030;-41
2022/03/27 08:41:24;;;;;;;2.42;1.90;;;;;;;;;;5013708;28;20098;-43
2022/03/27 08:43:58;;;;;;;3.45;2.25;;;;;;;;;;5013573;28;20025;-43
2022/03/27 08:46:29;;;;;;;2.58;2.10;;;;;;;;;;5013587;28;20402;-42
2022/03/27 08:49:08;;;;;;;3.00;1.95;;;;;;;;;;5013658;28;20034;-42
2022/03/27 08:51:40;;;;;;;2.40;1.90;;;;;;;;;;5013585;28;20030;-42
2022/03/27 08:54:09;;;;;;;2.28;1.63;;;;;;;;;;5013245;28;20112;-42
2022/03/27 08:56:36;;;;;;;4.20;1.90;;;;;;;;;;5013406;28;20122;-42
2022/03/27 08:59:07;;;;;;;2.67;2.03;;;;;;;;;;5013283;28;20030;-42
2022/03/27 09:01:34;;;;;;;2.63;1.90;;;;;;;;;;5013654;28;20029;-42
2022/03/27 09:04:02;;;;;;;3.42;1.90;;;;;;;;;;5028401;28;20030;-41
2022/03/27 09:06:29;;;;;;;2.30;1.63;;;;;;;;;;5013197;28;20402;-41
2022/03/27 09:08:56;;;;;;;3.17;1.70;;;;;;;;;;5028359;28;20038;-42
2022/03/27 09:11:23;;;;;;;2.28;1.90;;;;;;;;;;5013295;28;20057;-42
2022/03/27 09:13:52;;;;;;;3.00;1.83;;;;;;;;;;5013168;28;20475;-41
2022/03/27 09:16:19;;;;;;;3.45;1.95;;;;;;;;;;5013037;28;20025;-41
2022/03/27 09:18:52;;;;;;;3.33;2.15;;;;;;;;;;5013058;28;20042;-45
2022/03/27 09:21:20;;;;;;;2.60;1.77;;;;;;;;;;5013052;28;20037;-41
2022/03/27 09:23:52;;;;;;;2.72;1.88;;;;;;;;;;5012989;28;20483;-44
2022/03/27 09:26:20;;;;;;;1.92;1.65;;;;;;;;;;5013048;28;20487;-41
2022/03/27 09:28:54;;;;;;;3.03;1.70;;;;;;;;;;5012952;28;20030;-43
2022/03/27 09:31:23;;;;;;;2.35;1.50;;;;;;;;;;5012978;28;20113;-42
2022/03/27 09:33:52;;;;;;;2.30;1.70;;;;;;;;;;5012864;28;20422;-41
2022/03/27 09:36:24;;;;;;;2.75;1.83;;;;;;;;;;5011617;28;20034;-42
2022/03/27 09:39:16;;;;;;;2.37;1.83;;;;;;;;;;5012791;28;20479;-42
2022/03/27 09:41:45;;;;;;;3.10;2.00;;;;;;;;;;5007533;28;20442;-42
2022/03/27 09:44:11;;;;;;;2.70;1.83;;;;;;;;;;5012544;28;20022;-43
2022/03/27 09:46:59;;;;;;;3.25;2.10;;;;;;;;;;5012782;28;20048;-44
2022/03/27 09:49:34;;;;;;;3.53;1.95;;;;;;;;;;5012754;28;20018;-42
2022/03/27 09:52:05;;;;;;;3.00;1.60;;;;;;;;;;5012767;28;20032;-44
2022/03/27 09:54:45;;;;;;;3.78;1.58;;;;;;;;;;5012338;28;20057;-41
2022/03/27 09:57:19;;;;;;;2.10;1.48;;;;;;;;;;5012606;28;20479;-42
2022/03/27 09:59:46;;;;;;;2.17;1.60;;;;;;;;;;5011118;28;20085;-41
2022/03/27 10:02:17;;;;;;;2.55;1.63;;;;;;;;;;5012867;28;20459;-42
2022/03/27 10:05:07;;;;;;;2.35;1.63;;;;;;;;;;5012578;28;20387;-42
2022/03/27 10:07:44;;;;;;;2.67;1.80;;;;;;;;;;5007322;28;20472;-42
2022/03/27 10:10:14;;;;;;;2.38;1.85;;;;;;;;;;5012645;28;20163;-42
2022/03/27 10:12:42;;;;;;;4.07;1.60;;;;;;;;;;5012549;28;20408;-41
2022/03/27 10:15:12;;;;;;;3.20;1.90;;;;;;;;;;5012452;28;20029;-42
2022/03/27 10:17:39;;;;;;;2.63;1.83;;;;;;;;;;5012529;28;20072;-41
2022/03/27 10:20:12;;;;;;;2.15;1.50;;;;;;;;;;5012448;28;20026;-42
2022/03/27 10:22:42;;;;;;;3.97;1.70;;;;;;;;;;5012320;28;20500;-42
2022/03/27 10:25:10;;;;;;;3.05;1.98;;;;;;;;;;5012405;28;20068;-44
2022/03/27 10:27:38;;;;;;;2.80;1.77;;;;;;;;;;5012440;28;20018;-41
2022/03/27 10:30:06;;;;;;;1.88;1.40;;;;;;;;;;5012389;28;20036;-41
2022/03/27 10:32:35;;;;;;;2.30;1.42;;;;;;;;;;5012444;28;20383;-42
2022/03/27 10:35:04;;;;;;;2.40;2.00;;;;;;;;;;5012342;28;20029;-42
2022/03/27 10:37:59;;;;;;;3.25;1.63;;;;;;;;;;5012362;28;20502;-41
2022/03/27 10:40:29;;;;;;;3.58;1.80;;;;;;;;;;5010867;28;20064;-42
2022/03/27 10:43:22;;;;;;;7.88;1.80;;;;;;;;;;5012374;28;20125;-42
2022/03/27 10:46:08;;;;;;;2.28;1.60;;;;;;;;;;4996714;28;20049;-43
2022/03/27 10:48:38;;;;;;;2.25;1.75;;;;;;;;;;5012255;28;20026;-42
2022/03/27 10:51:04;;;;;;;2.72;1.70;;;;;;;;;;5012270;28;20037;-42
2022/03/27 10:53:32;;;;;;;1.85;1.55;;;;;;;;;;5027501;28;20502;-41
2022/03/27 10:55:59;;;;;;;2.72;1.90;;;;;;;;;;5015472;28;20046;-43
2022/03/27 10:58:28;;;;;;;2.05;1.60;;;;;;;;;;5015550;28;20041;-42
2022/03/27 11:00:56;;;;;;;1.70;1.40;;;;;;;;;;5015582;28;20430;-42
2022/03/27 11:03:41;;;;;;;3.97;1.75;;;;;;;;;;5015494;28;20022;-42
2022/03/27 11:06:20;;;;;;;1.90;1.52;;;;;;;;;;5015580;28;20027;-41
2022/03/27 11:08:47;;;;;;;1.88;1.50;;;;;;;;;;5015378;28;20487;-43
2022/03/27 11:11:34;;;;;;;1.88;1.13;;;;;;;;;;5015449;28;20037;-42
2022/03/27 11:14:02;;;;;;;2.42;1.80;;;;;;;;;;5015289;28;20032;-42
2022/03/27 11:16:28;;;;;;;5.10;1.67;;;;;;;;;;5015337;28;20059;-41
2022/03/27 11:18:55;;;;;;;2.40;1.55;;;;;;;;;;5015118;28;20034;-41
2022/03/27 11:21:29;;;;;;;1.88;1.38;;;;;;;;;;5015307;28;20101;-42
2022/03/27 11:24:04;;;;;;;3.10;1.33;;;;;;;;;;5015128;28;20077;-43
2022/03/27 11:26:31;;;;;;;2.28;1.52;;;;;;;;;;5015164;28;20018;-42
2022/03/27 11:29:06;;;;;;;2.92;1.10;;;;;;;;;;5015091;28;20022;-42
2022/03/27 11:31:34;;;;;;;1.60;1.20;;;;;;;;;;5015074;28;20025;-42
2022/03/27 11:34:17;;;;;;;2.10;1.48;;;;;;;;;;5014881;28;20048;-42
2022/03/27 11:36:48;;;;;;;2.47;1.77;;;;;;;;;;5014776;28;20091;-45
2022/03/27 11:39:30;;;;;;;2.20;1.50;;;;;;;;;;5014777;28;20037;-42
2022/03/27 11:42:17;;;;;;;2.22;1.75;;;;;;;;;;5013572;28;20037;-42
2022/03/27 11:47:40;;;;;;;1.95;1.50;;;;;;;;;;5014703;28;20064;-44
2022/03/27 11:50:08;;;;;;;2.13;1.30;;;;;;;;;;5014660;28;20084;-42
2022/03/27 11:52:35;;;;;;;2.63;1.50;;;;;;;;;;5014633;28;20025;-42
2022/03/27 11:55:03;;;;;;;2.17;1.40;;;;;;;;;;5014338;28;20081;-43
2022/03/27 11:57:44;;;;;;;1.88;1.42;;;;;;;;;;5014617;28;20056;-45
2022/03/27 12:00:11;;;;;;;2.33;1.35;;;;;;;;;;5014466;28;20030;-42
2022/03/27 12:02:45;;;;;;;1.63;1.30;;;;;;;;;;5008405;28;20051;-43
2022/03/27 12:05:13;;;;;;;1.52;1.15;;;;;;;;;;5013911;28;20021;-41
2022/03/27 12:07:51;;;;;;;2.25;1.30;;;;;;;;;;5014340;28;20105;-41
2022/03/27 12:10:18;;;;;;;2.58;1.40;;;;;;;;;;5014168;28;20026;-42
2022/03/27 12:13:07;;;;;;;2.08;1.73;;;;;;;;;;5014230;28;20022;-42
2022/03/27 12:15:50;;;;;;;2.30;1.30;;;;;;;;;;5014152;28;20022;-42
2022/03/27 12:18:33;;;;;;;2.15;1.40;;;;;;;;;;5014031;28;20053;-42
2022/03/27 12:21:03;;;;;;;1.60;1.02;;;;;;;;;;5014132;28;20033;-42
2022/03/27 12:23:31;;;;;;;1.40;1.10;;;;;;;;;;5010861;28;20480;-43
2022/03/27 12:25:58;;;;;;;2.35;1.20;;;;;;;;;;5021687;28;20021;-42
2022/03/27 12:31:20;;;;;;;2.55;1.80;;;;;;;;;;5021959;28;20063;-44
2022/03/27 12:33:49;;;;;;;2.58;1.23;;;;;;;;;;5012753;28;20427;-42
2022/03/27 12:36:16;;;;;;;1.55;1.20;;;;;;;;;;5010952;28;20117;-44
2022/03/27 12:38:43;;;;;;;2.25;1.30;;;;;;;;;;5016716;28;20036;-41
2022/03/27 12:41:11;;;;;;;6.32;1.58;;;;;;;;;;5011324;28;20022;-47
2022/03/27 12:44:00;;;;;;;2.38;1.48;;;;;;;;;;5012733;28;20080;-42
2022/03/27 12:46:27;;;;;;;2.53;1.20;;;;;;;;;;5013493;28;20021;-43
2022/03/27 12:49:02;;;;;;;2.33;1.25;;;;;;;;;;5012991;28;20057;-42
2022/03/27 12:51:30;;;;;;;3.72;1.30;;;;;;;;;;5030345;28;20021;-42
2022/03/27 12:54:15;;;;;;;3.83;1.50;;;;;;;;;;5047832;28;20029;-43
2022/03/27 12:56:57;;;;;;;2.55;1.50;;;;;;;;;;5032806;28;20020;-42
2022/03/27 12:59:24;;;;;;;2.35;1.35;;;;;;;;;;5032892;28;20033;-46
2022/03/27 13:01:51;;;;;;;5.43;1.58;;;;;;;;;;5032880;28;20136;-45
2022/03/27 13:04:18;;;;;;;3.97;1.02;;;;;;;;;;5032440;28;20583;-43
2022/03/27 13:06:51;;;;;;;3.47;1.40;;;;;;;;;;5032834;28;20491;-42
2022/03/27 13:09:22;;;;;;;2.55;1.25;;;;;;;;;;5023228;28;20133;-42
2022/03/27 13:11:49;;;;;;;5.72;1.52;;;;;;;;;;5004557;28;20041;-43
2022/03/27 13:14:17;;;;;;;4.53;1.48;;;;;;;;;;5012609;28;20033;-44
2022/03/27 13:16:45;;;;;;;2.13;1.23;;;;;;;;;;5011856;28;20037;-42
2022/03/27 13:19:14;;;;;;;3.75;1.85;;;;;;;;;;5012314;28;20083;-42
2022/03/27 13:21:40;;;;;;;3.08;1.38;;;;;;;;;;5016756;28;20083;-42
2022/03/27 13:24:11;;;;;;;2.38;1.45;;;;;;;;;;5022234;28;20033;-43
2022/03/27 13:26:40;;;;;;;3.65;1.65;;;;;;;;;;5021541;28;20487;-42
2022/03/27 13:29:07;;;;;;;3.83;1.25;;;;;;;;;;5020317;28;20017;-42
2022/03/27 13:31:35;;;;;;;4.00;1.25;;;;;;;;;;5021505;28;20052;-42
2022/03/27 13:34:03;;;;;;;2.92;1.40;;;;;;;;;;5021864;28;20165;-44
2022/03/27 13:36:33;;;;;;;3.22;1.10;;;;;;;;;;5018540;28;20037;-43
2022/03/27 13:39:00;;;;;;;12.15;1.38;;;;;;;;;;5020592;28;20048;-42
2022/03/27 13:44:16;;;;;;;1.33;1.20;;;;;;;;;;5015423;28;20040;-44
2022/03/27 13:46:42;;;;;;;2.95;1.20;;;;;;;;;;5021036;28;20079;-42
2022/03/27 13:49:09;;;;;;;2.80;0.98;;;;;;;;;;5021940;28;20030;-43
2022/03/27 13:51:36;;;;;;;1.88;1.17;;;;;;;;;;5020869;28;20117;-42
2022/03/27 13:54:03;;;;;;;3.00;1.25;;;;;;;;;;5020635;28;20105;-42
2022/03/27 13:56:36;;;;;;;1.98;1.05;;;;;;;;;;5022101;28;20505;-43
2022/03/27 13:59:03;;;;;;;2.35;1.50;;;;;;;;;;5021209;28;20502;-42
2022/03/27 14:01:35;;;;;;;4.65;1.20;;;;;;;;;;5019855;28;20156;-42
2022/03/27 14:04:02;;;;;;;1.75;1.30;;;;;;;;;;5020802;28;20060;-46
2022/03/27 14:06:30;;;;;;;2.08;1.20;;;;;;;;;;5020201;28;20066;-43
2022/03/27 14:08:58;;;;;;;2.35;1.38;;;;;;;;;;5018175;28;20483;-43
2022/03/27 14:11:25;;;;;;;2.33;1.15;;;;;;;;;;5002949;28;20025;-43
2022/03/27 14:13:52;;;;;;;2.03;1.30;;;;;;;;;;5030895;28;20478;-43
2022/03/27 14:16:20;;;;;;;2.72;1.20;;;;;;;;;;5031436;28;20040;-43
2022/03/27 14:18:47;;;;;;;3.22;1.05;;;;;;;;;;5020586;28;20121;-42
2022/03/27 14:21:14;;;;;;;3.28;1.25;;;;;;;;;;5018233;28;20029;-47
2022/03/27 14:23:42;;;;;;;3.15;1.38;;;;;;;;;;5031384;28;20028;-44
2022/03/27 14:26:10;;;;;;;2.20;1.20;;;;;;;;;;5031452;28;20029;-44
2022/03/27 14:28:38;;;;;;;11.95;1.67;;;;;;;;;;5018084;28;20118;-43
2022/03/27 14:31:05;;;;;;;5.50;1.55;;;;;;;;;;5015626;28;20061;-43
2022/03/27 14:33:32;;;;;;;4.32;1.77;;;;;;;;;;5014981;28;20030;-43
2022/03/27 14:36:00;;;;;;;7.82;1.80;;;;;;;;;;5015541;28;20046;-46
2022/03/27 14:38:28;;;;;;;2.70;1.88;;;;;;;;;;5018971;28;20022;-45
2022/03/27 14:40:57;;;;;;;3.45;1.73;;;;;;;;;;5035279;28;20029;-40
2022/03/27 14:43:25;;;;;;;9.25;1.90;;;;;;;;;;5015277;28;20112;-42
2022/03/27 14:45:52;;;;;;;6.10;1.60;;;;;;;;;;5019020;28;20033;-43
2022/03/27 14:48:19;;;;;;;4.80;1.42;;;;;;;;;;5014014;28;20026;-43
2022/03/27 14:50:47;;;;;;;10.02;2.10;;;;;;;;;;5019844;28;20038;-42
2022/03/27 14:53:14;;;;;;;5.93;1.40;;;;;;;;;;5014407;28;20475;-44
2022/03/27 14:56:00;;;;;;;6.70;1.38;;;;;;;;;;5014031;28;20045;-43
2022/03/27 14:58:31;;;;;;;3.67;1.80;;;;;;;;;;5014252;28;20026;-40
2022/03/27 15:00:59;;;;;;;8.27;1.55;;;;;;;;;;4987499;28;20030;-39
2022/03/27 15:03:26;;;;;;;9.05;1.95;;;;;;;;;;5012649;28;20018;-42
2022/03/27 15:05:53;;;;;;;6.38;1.60;;;;;;;;;;5028673;28;20067;-39
2022/03/27 15:08:20;;;;;;;8.07;1.83;;;;;;;;;;5012640;28;20030;-43
2022/03/27 15:10:48;;;;;;;7.35;1.60;;;;;;;;;;5011788;28;20037;-42